Lake Orion, MI (48359)

3:21 PM EDT on August 03, 2015 (GMT -0400)
Scrips on the Lake | | Change Station
CLOSE
Current Station
Personal Weather Station
Location: Orion Charter Township, MI
Elevation: 1007 ft
Nearby Weather Stations

Elev 1007 ft 42.75 °N, 83.30 °W | Updated 24 seconds ago

Overcast
Overcast
67.5 °F
Feels Like 67.5 °F
N
3.6
Wind Variable Wind from West
Gusts 6.3 mph

Today
High -- | Low -- °F
--% Chance of Precip.
Yesterday
High -- | Low -- °F
Precip. -- in
6:26 AM 8:51 PM
Waning Gibbous, 84% visible
Pressure 29.81 in
Visibility 5.0 miles
Clouds Scattered Clouds 3300 ft
Mostly Cloudy 4800 ft
Overcast 9000 ft
Dew Point 64 °F
Humidity 88%
Rainfall 0.27 in
Snow Depth Not available.
UV 3 out of 12
Pollen 3.70 out of 12
Air Quality Not available.
Flu Activity Not available.
SPECI KPTK 031911Z 32015G26KT 5SM R09R/3000VP6000FT +TSRA SCT033 BKN048CB OVC090 19/17 A2981 RMK AO2 PK WND 32026/1905 RAB1854 TSB07 OCNL LTGIC SE TS SE MOV SE P0014 T01890172

More Conditions Fewer Conditions

Pressure 29.81 in
Visibility 5.0 miles
Clouds Scattered Clouds 3300 ft
Mostly Cloudy 4800 ft
Overcast 9000 ft
Dew Point 64 °F
Humidity 88%
Rainfall 0.27 in
Snow Depth Not available.
UV 3 out of 12
Pollen 3.70 out of 12
Air Quality Not available.
Flu Activity Not available.
SPECI KPTK 031911Z 32015G26KT 5SM R09R/3000VP6000FT +TSRA SCT033 BKN048CB OVC090 19/17 A2981 RMK AO2 PK WND 32026/1905 RAB1854 TSB07 OCNL LTGIC SE TS SE MOV SE P0014 T01890172

More Conditions Fewer Conditions

10-Day Weather Forecast

×

Almanac

Astronomy

Aug. 03, 2015 Rise Set
Actual Time
Civil Twilight
Nautical Twilight
Astronomical Twilight
Moon
Length of Visible Light
Length of Day
Tomorrow will be .
, % of the Moon is Illuminated

Today's Extremes

State Highs State Lows

Community

WunderPhotos

Upload Photos

1,843,710 photos uploaded!

WunderBlogs® & News

Nearby

Air Quality

  Air Quality AQ Index Pollutant
Not available.

Snow Depth

Station Depth Elevation

Earthquake Activity

City Distance Mag. Time & Date
Minimum magnitude displayed is 2.5.

Coastal Water Temperatures

Place Temperature

Stations

Nearby Weather Stations

Station Location Temp. Windchill Dew Point Humidity Wind Precip. Elev Updated Type